createdAt,value
2022-12-19T00:00:41.903Z,-3.25
2022-12-19T00:03:09.135Z,-3.24
2022-12-19T00:05:37.772Z,-3.21
2022-12-19T00:08:12.394Z,-3.18
2022-12-19T00:10:53.734Z,-3.18
2022-12-19T00:13:20.743Z,-3.09
2022-12-19T00:15:47.750Z,-3.04
2022-12-19T00:18:14.901Z,-3.05
2022-12-19T00:20:41.967Z,-3.05
2022-12-19T00:23:09.117Z,-3.02
2022-12-19T00:25:36.275Z,-3.02
2022-12-19T00:28:12.166Z,-2.98
2022-12-19T00:30:39.363Z,-2.97
2022-12-19T00:33:06.751Z,-2.96
2022-12-19T00:35:33.783Z,-2.99
2022-12-19T00:38:00.948Z,-2.94
2022-12-19T00:40:28.739Z,-2.93
2022-12-19T00:42:55.874Z,-2.93
2022-12-19T00:45:25.463Z,-2.88
2022-12-19T00:47:52.535Z,-2.90
2022-12-19T00:50:21.000Z,-2.83
2022-12-19T00:52:48.042Z,-2.76
2022-12-19T00:55:18.427Z,-2.78
2022-12-19T00:57:46.588Z,-2.71
2022-12-19T01:00:14.551Z,-2.66
2022-12-19T01:02:41.748Z,-2.67
2022-12-19T01:05:09.340Z,-2.63
2022-12-19T01:07:36.493Z,-2.66
2022-12-19T01:10:04.631Z,-2.70
2022-12-19T01:12:31.907Z,-2.68
2022-12-19T01:15:04.556Z,-2.70
2022-12-19T01:17:33.803Z,-2.66
2022-12-19T01:20:02.734Z,-2.66
2022-12-19T01:22:29.753Z,-2.63
2022-12-19T01:24:56.773Z,-2.64
2022-12-19T01:27:23.813Z,-2.66
2022-12-19T01:29:52.240Z,-2.63
2022-12-19T01:32:21.654Z,-2.62
2022-12-19T01:34:50.820Z,-2.60
2022-12-19T01:37:18.392Z,-2.57
2022-12-19T01:39:46.182Z,-2.52
2022-12-19T01:42:23.327Z,-2.51
2022-12-19T01:45:12.290Z,-2.49
2022-12-19T01:48:00.702Z,-2.45
2022-12-19T01:50:44.963Z,-2.45
2022-12-19T01:53:29.937Z,-2.45
2022-12-19T01:55:57.594Z,-2.47
2022-12-19T01:58:25.475Z,-2.42
2022-12-19T02:00:52.604Z,-2.38
2022-12-19T02:03:26.918Z,-2.37
2022-12-19T02:05:55.113Z,-2.36
2022-12-19T02:08:24.391Z,-2.32
2022-12-19T02:10:51.551Z,-2.30
2022-12-19T02:13:19.489Z,-2.27
2022-12-19T02:15:59.693Z,-2.26
2022-12-19T02:18:40.476Z,-2.26
2022-12-19T02:21:30.988Z,-2.26
2022-12-19T02:24:31.194Z,-2.32
2022-12-19T02:27:19.895Z,-2.25
2022-12-19T02:30:00.781Z,-2.25
2022-12-19T02:32:46.195Z,-2.24
2022-12-19T02:35:46.867Z,-2.25
2022-12-19T02:38:38.756Z,-2.31
2022-12-19T02:41:15.714Z,-2.30
2022-12-19T02:43:49.100Z,-2.23
2022-12-19T02:46:27.930Z,-2.35
2022-12-19T02:48:56.542Z,-2.28
2022-12-19T02:51:23.583Z,-2.29
2022-12-19T02:53:51.115Z,-2.27
2022-12-19T02:56:42.864Z,-2.30
2022-12-19T02:59:34.909Z,-2.27
2022-12-19T03:02:08.215Z,-2.30
2022-12-19T03:04:41.438Z,-2.27
2022-12-19T03:07:36.849Z,-2.24
2022-12-19T03:10:18.210Z,-2.25
2022-12-19T03:12:53.607Z,-2.19
2022-12-19T03:15:22.246Z,-2.13
2022-12-19T03:17:50.269Z,-2.09
2022-12-19T03:20:42.223Z,-2.10
2022-12-19T03:23:09.620Z,-2.08
2022-12-19T03:25:37.241Z,-2.09
2022-12-19T03:28:15.387Z,-2.09
2022-12-19T03:30:43.928Z,-2.05
2022-12-19T03:33:13.439Z,-2.05
2022-12-19T03:35:41.715Z,-2.07
2022-12-19T03:38:10.906Z,-2.02
2022-12-19T03:40:42.864Z,-2.05
2022-12-19T03:43:12.693Z,-2.05
2022-12-19T03:45:40.410Z,-2.18
2022-12-19T03:48:13.943Z,-2.14
2022-12-19T03:50:53.179Z,-2.16
2022-12-19T03:53:26.187Z,-2.18
2022-12-19T03:56:09.817Z,-2.17
2022-12-19T03:58:40.883Z,-2.23
2022-12-19T04:01:09.576Z,-2.26
2022-12-19T04:03:36.915Z,-2.19
2022-12-19T04:06:05.369Z,-2.15
2022-12-19T04:08:33.552Z,-2.11
2022-12-19T04:11:09.715Z,-2.09
2022-12-19T04:14:05.952Z,-2.10
2022-12-19T04:16:44.813Z,-2.12
2022-12-19T04:19:28.526Z,-2.07
2022-12-19T04:22:12.659Z,-2.00
2022-12-19T04:24:42.803Z,-2.05
2022-12-19T04:27:13.131Z,-2.04
2022-12-19T04:29:41.385Z,-2.00
2022-12-19T04:32:09.557Z,-2.00
2022-12-19T04:34:40.199Z,-1.96
2022-12-19T04:37:11.042Z,-1.97
2022-12-19T04:39:38.522Z,-1.92
2022-12-19T04:42:05.763Z,-1.92
2022-12-19T04:44:32.810Z,-1.93
2022-12-19T04:46:59.932Z,-1.91
2022-12-19T04:49:27.002Z,-1.87
2022-12-19T04:51:54.149Z,-1.83
2022-12-19T04:54:21.744Z,-1.83
2022-12-19T04:56:48.779Z,-1.83
2022-12-19T04:59:15.822Z,-1.83
2022-12-19T05:01:43.005Z,-1.79
2022-12-19T05:04:10.270Z,-1.79
2022-12-19T05:06:39.580Z,-1.77
2022-12-19T05:09:06.687Z,-1.77
2022-12-19T05:11:33.725Z,-1.77
2022-12-19T05:14:00.773Z,-1.76
2022-12-19T05:16:28.336Z,-1.74
2022-12-19T05:18:56.247Z,-1.75
2022-12-19T05:21:23.837Z,-1.70
2022-12-19T05:23:51.116Z,-1.72
2022-12-19T05:26:20.711Z,-1.70
2022-12-19T05:28:47.682Z,-1.68
2022-12-19T05:31:17.980Z,-1.64
2022-12-19T05:33:45.814Z,-1.61
2022-12-19T05:36:15.007Z,-1.64
2022-12-19T05:38:42.199Z,-1.61
2022-12-19T05:41:11.470Z,-1.63
2022-12-19T05:43:43.737Z,-1.60
2022-12-19T05:46:11.452Z,-1.62
2022-12-19T05:48:38.634Z,-1.63
2022-12-19T05:51:05.743Z,-1.61
2022-12-19T05:53:35.598Z,-1.59
2022-12-19T05:56:17.007Z,-1.55
2022-12-19T05:58:45.930Z,-1.59
2022-12-19T06:01:17.196Z,-1.56
2022-12-19T06:03:44.679Z,-1.59
2022-12-19T06:06:14.738Z,-1.54
2022-12-19T06:08:42.489Z,-1.52
2022-12-19T06:11:11.322Z,-1.37
2022-12-19T06:13:39.007Z,-1.38
2022-12-19T06:16:12.242Z,-1.31
2022-12-19T06:18:45.003Z,-1.33
2022-12-19T06:21:19.599Z,-1.33
2022-12-19T06:23:47.472Z,-1.36
2022-12-19T06:26:19.859Z,-1.34
2022-12-19T06:28:52.217Z,-1.27
2022-12-19T06:31:21.427Z,-1.26
2022-12-19T06:33:48.930Z,-1.25
2022-12-19T06:36:21.100Z,-1.26
2022-12-19T06:38:49.043Z,-1.23
2022-12-19T06:41:20.043Z,-1.21
2022-12-19T06:43:51.893Z,-1.22
2022-12-19T06:46:20.862Z,-1.22
2022-12-19T06:48:47.996Z,-1.21
2022-12-19T06:51:15.141Z,-1.19
2022-12-19T06:53:43.383Z,-1.17
2022-12-19T06:56:13.432Z,-1.18
2022-12-19T06:58:40.583Z,-1.20
2022-12-19T07:01:08.233Z,-1.07
2022-12-19T07:03:40.078Z,-0.97
2022-12-19T07:06:07.924Z,-1.01
2022-12-19T07:08:35.005Z,-1.05
2022-12-19T07:11:02.957Z,-1.08
2022-12-19T07:13:31.236Z,-1.07
2022-12-19T07:16:02.650Z,-1.05
2022-12-19T07:18:38.480Z,-1.02
2022-12-19T07:21:07.852Z,-1.07
2022-12-19T07:23:35.399Z,-1.08
2022-12-19T07:26:02.650Z,-1.06
2022-12-19T07:28:29.809Z,-1.03
2022-12-19T07:30:56.908Z,-1.06
2022-12-19T07:33:24.077Z,-1.03
2022-12-19T07:35:51.178Z,-1.06
2022-12-19T07:38:18.323Z,-1.04
2022-12-19T07:40:45.407Z,-1.02
2022-12-19T07:43:12.467Z,-1.00
2022-12-19T07:45:39.762Z,-0.95
2022-12-19T07:48:08.233Z,-0.92
2022-12-19T07:50:35.617Z,-0.93
2022-12-19T07:53:02.878Z,-0.94
2022-12-19T07:55:30.026Z,-0.92
2022-12-19T07:57:57.115Z,-0.87
2022-12-19T08:00:24.177Z,-0.95
2022-12-19T08:02:51.362Z,-0.88
2022-12-19T08:05:18.769Z,-0.92
2022-12-19T08:07:45.787Z,-0.93
2022-12-19T08:10:12.820Z,-0.88
2022-12-19T08:12:42.976Z,-0.86
2022-12-19T08:15:11.002Z,-0.78
2022-12-19T08:17:38.667Z,-0.75
2022-12-19T08:20:09.840Z,-0.77
2022-12-19T08:22:37.289Z,-0.73
2022-12-19T08:25:04.835Z,-0.63
2022-12-19T08:27:31.934Z,-0.60
2022-12-19T08:29:58.956Z,-0.50
2022-12-19T08:32:28.530Z,-0.47
2022-12-19T08:34:55.569Z,-0.46
2022-12-19T08:37:22.716Z,-0.45
2022-12-19T08:39:49.747Z,-0.45
2022-12-19T08:42:16.775Z,-0.47
2022-12-19T08:44:44.967Z,-0.44
2022-12-19T08:47:11.961Z,-0.45
2022-12-19T08:49:39.030Z,-0.48
2022-12-19T08:52:06.302Z,-0.42
2022-12-19T08:54:33.615Z,-0.58
2022-12-19T08:57:04.500Z,-0.52
2022-12-19T08:59:32.261Z,-0.43
2022-12-19T09:02:00.847Z,-0.37
2022-12-19T09:06:01.676Z,-0.36
2022-12-19T09:07:16.493Z,-0.31
2022-12-19T09:09:44.648Z,-0.28
2022-12-19T09:12:15.407Z,-0.19
2022-12-19T09:14:42.557Z,-0.10
2022-12-19T09:17:10.204Z,-0.01
2022-12-19T09:19:37.316Z,0.06
2022-12-19T09:22:04.961Z,0.09
2022-12-19T09:24:32.089Z,0.11
2022-12-19T09:26:59.155Z,0.10
2022-12-19T09:29:28.701Z,0.15
2022-12-19T09:31:58.539Z,0.24
2022-12-19T09:34:33.023Z,0.37
2022-12-19T09:37:16.962Z,0.33
2022-12-19T09:39:46.961Z,0.37
2022-12-19T09:42:41.388Z,0.50
2022-12-19T09:45:33.304Z,0.48
2022-12-19T09:48:01.798Z,0.56
2022-12-19T09:51:11.124Z,0.71
2022-12-19T09:54:09.527Z,0.80
2022-12-19T09:56:46.525Z,0.80
2022-12-19T09:59:41.233Z,0.85
2022-12-19T10:02:24.113Z,0.95
2022-12-19T10:05:11.449Z,0.94
2022-12-19T10:08:09.747Z,0.98
2022-12-19T10:12:37.860Z,0.99
2022-12-19T10:14:11.964Z,0.96
2022-12-19T10:17:24.883Z,0.98
2022-12-19T10:20:11.058Z,0.97
2022-12-19T10:23:07.833Z,1.02
2022-12-19T10:25:59.752Z,1.03
2022-12-19T10:28:37.417Z,1.14
2022-12-19T10:31:21.404Z,1.22
2022-12-19T10:34:18.121Z,1.25
2022-12-19T10:37:20.960Z,1.23
2022-12-19T10:39:39.859Z,1.31
2022-12-19T10:42:17.198Z,1.45
2022-12-19T10:44:47.486Z,1.42
2022-12-19T10:47:17.023Z,1.46
2022-12-19T10:49:44.118Z,1.50
2022-12-19T10:52:12.595Z,1.50
2022-12-19T10:54:43.071Z,1.42
2022-12-19T10:57:22.134Z,1.43
2022-12-19T11:00:16.990Z,1.40
2022-12-19T11:02:49.688Z,1.30
2022-12-19T11:05:42.091Z,1.34
2022-12-19T11:08:09.054Z,1.34
2022-12-19T11:11:50.267Z,1.36
2022-12-19T11:19:13.300Z,1.36
2022-12-19T11:21:21.368Z,1.42
2022-12-19T11:29:38.156Z,1.49
2022-12-19T11:29:39.120Z,1.46
2022-12-19T11:29:55.844Z,1.46
2022-12-19T11:30:45.318Z,1.50
2022-12-19T11:34:06.261Z,1.32
2022-12-19T11:36:41.598Z,1.35
2022-12-19T11:39:30.403Z,1.25
2022-12-19T11:42:18.368Z,1.25
2022-12-19T11:45:11.596Z,1.21
2022-12-19T11:47:51.385Z,1.24
2022-12-19T11:50:25.119Z,1.28
2022-12-19T11:53:20.934Z,1.28
2022-12-19T11:55:58.873Z,1.38
2022-12-19T11:58:28.451Z,1.39
2022-12-19T12:01:37.843Z,1.39
2022-12-19T12:04:32.998Z,1.39
2022-12-19T12:07:00.503Z,1.40
2022-12-19T12:16:09.421Z,1.39
2022-12-19T12:18:29.501Z,1.48
2022-12-19T12:24:50.784Z,1.47
2022-12-19T12:31:04.287Z,1.60
2022-12-19T12:31:49.210Z,1.55
2022-12-19T12:31:49.443Z,1.58
2022-12-19T12:32:05.782Z,1.56
2022-12-19T12:35:43.571Z,1.60
2022-12-19T12:38:28.981Z,1.74
2022-12-19T12:41:14.456Z,1.72
2022-12-19T12:43:59.636Z,1.65
2022-12-19T12:46:33.982Z,1.60
2022-12-19T12:49:25.623Z,1.55
2022-12-19T12:51:53.201Z,1.53
2022-12-19T12:54:21.640Z,1.47
2022-12-19T12:56:48.661Z,1.43
2022-12-19T12:59:24.375Z,1.48
2022-12-19T13:02:11.301Z,1.47
2022-12-19T13:04:54.042Z,1.41
2022-12-19T13:07:35.592Z,1.42
2022-12-19T13:10:13.917Z,1.40
2022-12-19T13:13:02.987Z,1.41
2022-12-19T13:15:39.427Z,1.38
2022-12-19T13:18:12.328Z,1.42
2022-12-19T13:20:43.599Z,1.36
2022-12-19T13:23:23.883Z,1.26
2022-12-19T13:25:53.653Z,1.22
2022-12-19T13:28:20.696Z,1.20
2022-12-19T13:31:18.885Z,1.21
2022-12-19T13:33:55.128Z,1.24
2022-12-19T13:39:48.494Z,1.27
2022-12-19T13:40:18.580Z,1.39
2022-12-19T13:43:10.726Z,1.42
2022-12-19T13:45:57.038Z,1.50
2022-12-19T13:48:40.234Z,1.52
2022-12-19T13:51:12.469Z,1.63
2022-12-19T13:53:41.174Z,1.60
2022-12-19T13:56:18.282Z,1.61
2022-12-19T13:58:49.163Z,1.58
2022-12-19T14:01:23.529Z,1.53
2022-12-19T14:03:53.210Z,1.48
2022-12-19T14:06:24.749Z,1.43
2022-12-19T14:09:37.451Z,1.46
2022-12-19T14:13:46.850Z,1.42
2022-12-19T14:14:32.910Z,1.46
2022-12-19T14:17:08.850Z,1.49
2022-12-19T14:19:44.921Z,1.49
2022-12-19T14:22:20.567Z,1.49
2022-12-19T14:28:14.279Z,1.43
2022-12-19T14:28:19.581Z,1.41
2022-12-19T14:31:02.916Z,1.40
2022-12-19T14:33:47.422Z,1.38
2022-12-19T14:36:31.418Z,1.24
2022-12-19T14:39:24.147Z,1.23
2022-12-19T14:41:52.624Z,1.19
2022-12-19T14:52:34.558Z,1.16
2022-12-19T14:54:13.638Z,1.11
2022-12-19T14:54:22.569Z,1.14
2022-12-19T14:54:51.480Z,1.07
2022-12-19T14:56:36.275Z,1.06
2022-12-19T14:59:17.429Z,1.03
2022-12-19T15:01:55.625Z,1.04
2022-12-19T15:04:51.622Z,0.94
2022-12-19T15:07:41.821Z,0.98
2022-12-19T15:11:07.282Z,0.96
2022-12-19T15:14:47.700Z,0.93
2022-12-19T15:16:24.855Z,0.85
2022-12-19T15:18:56.015Z,0.84
2022-12-19T15:21:23.397Z,0.83
2022-12-19T15:23:50.759Z,0.78
2022-12-19T15:26:32.089Z,0.79
2022-12-19T15:29:01.910Z,0.75
2022-12-19T15:31:40.041Z,0.70
2022-12-19T15:34:34.714Z,0.68
2022-12-19T15:37:03.241Z,0.60
2022-12-19T15:39:32.968Z,0.55
2022-12-19T15:42:01.225Z,0.48
2022-12-19T15:44:39.892Z,0.42
2022-12-19T15:47:34.292Z,0.41
2022-12-19T15:50:02.532Z,0.40
2022-12-19T15:52:32.066Z,0.31
2022-12-19T15:55:00.256Z,0.29
2022-12-19T15:57:39.757Z,0.24
2022-12-19T16:00:18.183Z,0.18
2022-12-19T16:05:33.503Z,0.04
2022-12-19T16:08:00.682Z,0.04
2022-12-19T16:10:29.344Z,0.02
2022-12-19T16:12:57.212Z,-0.03
2022-12-19T16:15:30.982Z,-0.07
2022-12-19T16:18:00.375Z,-0.05
2022-12-19T16:20:30.846Z,-0.10
2022-12-19T16:23:07.032Z,-0.12
2022-12-19T16:25:38.996Z,-0.16
2022-12-19T16:28:13.479Z,-0.24
2022-12-19T16:30:40.582Z,-0.26
2022-12-19T16:33:19.152Z,-0.28
2022-12-19T16:38:34.684Z,-0.34
2022-12-19T16:41:03.423Z,-0.38
2022-12-19T16:43:38.404Z,-0.41
2022-12-19T16:46:07.157Z,-0.42
2022-12-19T16:48:34.423Z,-0.43
2022-12-19T16:51:01.819Z,-0.46
2022-12-19T16:53:29.528Z,-0.53
2022-12-19T16:55:57.267Z,-0.51
2022-12-19T16:58:27.189Z,-0.54
2022-12-19T17:00:55.204Z,-0.59
2022-12-19T17:03:31.642Z,-0.62
2022-12-19T17:05:58.902Z,-0.65
2022-12-19T17:08:26.163Z,-0.66
2022-12-19T17:10:54.609Z,-0.70
2022-12-19T17:13:22.775Z,-0.77
2022-12-19T17:15:56.341Z,-0.82
2022-12-19T17:18:37.909Z,-0.85
2022-12-19T17:21:05.136Z,-0.87
2022-12-19T17:23:32.339Z,-0.88
2022-12-19T17:25:59.673Z,-0.91
2022-12-19T17:28:28.716Z,-0.93
2022-12-19T17:30:59.144Z,-0.94
2022-12-19T17:33:34.960Z,-0.94
2022-12-19T17:36:03.903Z,-0.97
2022-12-19T17:38:31.571Z,-0.99
2022-12-19T17:40:58.907Z,-0.97
2022-12-19T17:43:28.016Z,-0.97
2022-12-19T17:45:55.485Z,-1.04
2022-12-19T17:48:33.193Z,-1.05
2022-12-19T17:51:00.275Z,-1.08
2022-12-19T17:53:27.430Z,-1.12
2022-12-19T17:55:54.505Z,-1.14
2022-12-19T17:58:21.730Z,-1.17
2022-12-19T18:00:49.983Z,-1.17
2022-12-19T18:03:23.729Z,-1.17
2022-12-19T18:05:54.585Z,-1.18
2022-12-19T18:08:26.253Z,-1.18
2022-12-19T18:10:57.537Z,-1.14
2022-12-19T18:13:28.481Z,-1.15
2022-12-19T18:15:58.162Z,-1.13
2022-12-19T18:18:36.351Z,-1.14
2022-12-19T18:21:04.181Z,-1.11
2022-12-19T18:23:33.223Z,-1.10
2022-12-19T18:26:02.484Z,-1.15
2022-12-19T18:28:32.344Z,-1.14
2022-12-19T18:31:12.509Z,-1.16
2022-12-19T18:33:42.806Z,-1.16
2022-12-19T18:36:17.553Z,-1.19
2022-12-19T18:38:44.762Z,-1.19
2022-12-19T18:41:12.254Z,-1.19
2022-12-19T18:43:39.314Z,-1.23
2022-12-19T18:46:06.884Z,-1.26
2022-12-19T18:48:36.952Z,-1.28
2022-12-19T18:51:05.527Z,-1.31
2022-12-19T18:53:35.625Z,-1.35
2022-12-19T18:56:05.281Z,-1.38
2022-12-19T18:58:33.325Z,-1.40
2022-12-19T19:01:01.641Z,-1.44
2022-12-19T19:03:35.283Z,-1.47
2022-12-19T19:06:20.201Z,-1.48
2022-12-19T19:08:47.427Z,-1.48
2022-12-19T19:11:35.707Z,-1.51
2022-12-19T19:14:02.701Z,-1.51
2022-12-19T19:16:29.883Z,-1.53
2022-12-19T19:18:58.702Z,-1.60
2022-12-19T19:21:29.760Z,-1.59
2022-12-19T19:24:10.576Z,-1.61
2022-12-19T19:26:37.849Z,-1.63
2022-12-19T19:29:05.566Z,-1.62
2022-12-19T19:31:36.624Z,-1.64
2022-12-19T19:34:17.022Z,-1.68
2022-12-19T19:36:46.700Z,-1.70
2022-12-19T19:39:31.609Z,-1.71
2022-12-19T19:41:58.887Z,-1.75
2022-12-19T19:44:26.159Z,-1.78
2022-12-19T19:46:53.314Z,-1.82
2022-12-19T19:49:24.454Z,-1.85
2022-12-19T19:51:56.828Z,-1.88
2022-12-19T19:54:27.746Z,-1.87
2022-12-19T19:56:54.880Z,-1.88
2022-12-19T19:59:22.049Z,-1.85
2022-12-19T20:01:52.306Z,-1.84
2022-12-19T20:04:20.218Z,-1.79
2022-12-19T20:06:47.456Z,-1.76
2022-12-19T20:09:14.737Z,-1.77
2022-12-19T20:11:41.859Z,-1.77
2022-12-19T20:14:09.196Z,-1.75
2022-12-19T20:16:47.175Z,-1.82
2022-12-19T20:19:14.748Z,-1.87
2022-12-19T20:21:42.739Z,-1.86
2022-12-19T20:24:09.893Z,-1.81
2022-12-19T20:26:37.087Z,-1.80
2022-12-19T20:29:04.622Z,-1.78
2022-12-19T20:31:32.663Z,-1.75
2022-12-19T20:34:01.925Z,-1.76
2022-12-19T20:36:29.007Z,-1.79
2022-12-19T20:38:56.208Z,-1.80
2022-12-19T20:41:23.379Z,-1.81
2022-12-19T20:43:50.609Z,-1.91
2022-12-19T20:46:20.522Z,-1.92
2022-12-19T20:48:48.670Z,-1.91
2022-12-19T20:51:17.726Z,-1.94
2022-12-19T20:53:45.596Z,-2.01
2022-12-19T20:56:17.888Z,-2.03
2022-12-19T20:58:46.090Z,-2.05
2022-12-19T21:01:17.508Z,-2.07
2022-12-19T21:03:45.633Z,-2.09
2022-12-19T21:06:20.172Z,-2.09
2022-12-19T21:08:51.526Z,-2.03
2022-12-19T21:11:18.566Z,-1.98
2022-12-19T21:13:45.754Z,-1.92
2022-12-19T21:16:20.101Z,-1.86
2022-12-19T21:18:47.857Z,-1.81
2022-12-19T21:21:19.338Z,-1.72
2022-12-19T21:23:48.266Z,-1.66
2022-12-19T21:26:15.532Z,-1.57
2022-12-19T21:28:45.382Z,-1.53
2022-12-19T21:31:14.874Z,-1.47
2022-12-19T21:33:42.851Z,-1.48
2022-12-19T21:36:13.120Z,-1.41
2022-12-19T21:38:40.372Z,-1.37
2022-12-19T21:41:08.163Z,-1.29
2022-12-19T21:43:36.277Z,-1.25
2022-12-19T21:46:10.367Z,-1.22
2022-12-19T21:48:43.623Z,-1.23
2022-12-19T21:51:45.992Z,-1.16
2022-12-19T21:54:22.491Z,-1.13
2022-12-19T21:56:51.893Z,-1.08
2022-12-19T21:59:19.191Z,-1.08
2022-12-19T22:01:46.564Z,-1.05
2022-12-19T22:04:19.449Z,-1.14
2022-12-19T22:06:51.174Z,-1.10
2022-12-19T22:09:21.392Z,-1.07
2022-12-19T22:11:48.793Z,-0.98
2022-12-19T22:14:17.062Z,-0.96
2022-12-19T22:16:47.109Z,-0.92
2022-12-19T22:19:16.230Z,-0.85
2022-12-19T22:21:44.740Z,-0.84
2022-12-19T22:24:13.672Z,-0.79
2022-12-19T22:26:41.226Z,-0.76
2022-12-19T22:29:10.786Z,-0.73
2022-12-19T22:31:40.863Z,-0.71
2022-12-19T22:34:15.874Z,-0.69
2022-12-19T22:36:47.247Z,-0.63
2022-12-19T22:39:22.475Z,-0.60
2022-12-19T22:41:49.826Z,-0.63
2022-12-19T22:44:22.217Z,-0.58
2022-12-19T22:46:50.083Z,-0.53
2022-12-19T22:49:17.387Z,-0.51
2022-12-19T22:51:44.659Z,-0.48
2022-12-19T22:54:14.795Z,-0.48
2022-12-19T22:56:42.102Z,-0.44
2022-12-19T22:59:11.690Z,-0.39
2022-12-19T23:01:42.484Z,-0.39
2022-12-19T23:04:13.204Z,-0.41
2022-12-19T23:06:41.453Z,-0.35
2022-12-19T23:09:11.194Z,-0.34
2022-12-19T23:11:40.755Z,-0.31
2022-12-19T23:14:11.243Z,-0.29
2022-12-19T23:16:38.502Z,-0.30
2022-12-19T23:19:05.940Z,-0.28
2022-12-19T23:21:33.097Z,-0.39
2022-12-19T23:24:00.209Z,-0.36
2022-12-19T23:26:29.789Z,-0.32
2022-12-19T23:29:03.413Z,-0.30
2022-12-19T23:31:31.125Z,-0.28
2022-12-19T23:33:59.044Z,-0.22
2022-12-19T23:37:08.234Z,-0.17
2022-12-19T23:39:14.703Z,-0.10
2022-12-19T23:41:42.154Z,-0.08
2022-12-19T23:44:10.105Z,-0.08
2022-12-19T23:46:37.940Z,-0.09
2022-12-19T23:49:05.099Z,-0.08
2022-12-19T23:51:32.309Z,-0.06
2022-12-19T23:53:59.375Z,-0.06
2022-12-19T23:56:28.743Z,-0.05
2022-12-19T23:58:56.783Z,0.01
